KSDY/SDY METAR and TAF weather

Enter ICAO airport designator
Station Type Date Time Source
KSDY METAR 2023/02/05 13:56 UTC NOAA

KSDY 051356Z AUTO 18005KT 10SM CLR M06/M07 A2991 RMK AO2 SLP157 T10611072 FZRANO


Station Type Date Time Source
KSDY Decoded METAR 2023/02/05 13:56 UTC NOAA

Sidney-Richland, MT, United States (KSDY) 47-42N 104-12W
Feb 05, 2023 - 08:56 AM EST / 2023.02.05 1356 UTC
Wind: from the S (180 degrees) at 6 MPH (5 KT):0
Visibility: 10 mile(s):0
Sky conditions: clear
Temperature: 21.0 F (-6.1 C)
Windchill: 14 F (-10 C):1
Dew Point: 19.0 F (-7.2 C)
Relative Humidity: 91%
Pressure (altimeter): 29.91 in. Hg (1012 hPa)
ob: KSDY 051356Z AUTO 18005KT 10SM CLR M06/M07 A2991 RMK AO2 SLP157 T10611072 FZRANO
cycle: 14

Station Type Date Time Source
KSDY TAF 2023/02/05 12:22 UTC NOAA

TAF KSDY 051120Z 0512/0612 VRB06KT P6SM SCT200
FM060900 27011KT P6SM BKN100

Example: see airport list